Latest Weather Observations for Wagga Wagga

IDN60801

Issued at 11:53 pm EST Friday 16 April 2021 (issued every 10 minutes, with the page automatically refreshed every 10 minutes)

About weather observations | Map of weather stations | Latest weather observations for NSW | Other Formats
Station Details ID: 072150 Name: WAGGA WAGGA AMO Lat: -35.16 Lon: 147.46 Height: 212.0 m
Data from the previous 72 hours. | See also: Recent months at Wagga Wagga
Date/Time
EST
Temp
°C
App
Temp
°C
Dew
Point
°C
Rel
Hum
%
Delta-T
°C
Wind Press
QNH
hPa
Press
MSL
hPa
Rain since
9am
mm
Dir  Spd
km/h
Gust
km/h
Spd
kts
Gust
kts
16/11:30pm 4.0 0.5 1.4 83 1.0 WNW 9 11 5 6 1022.5 1022.2 0.0
16/11:00pm 5.8 4.4 3.5 85 1.0 CALM 0 0 0 0 1022.5 1022.2 0.0
16/10:30pm 5.2 3.6 2.4 82 1.1 CALM 0 0 0 0 1022.4 1022.1 0.0
16/10:00pm 5.9 4.2 1.6 74 1.7 CALM 0 0 0 0 1022.5 1022.2 0.0
16/09:30pm 7.3 5.7 2.6 72 2.0 CALM 0 0 0 0 1022.4 1022.1 0.0
16/09:00pm 8.2 6.6 2.2 66 2.5 CALM 0 0 0 0 1022.3 1022.0 0.0
16/08:30pm 9.1 6.8 2.7 64 2.7 ENE 4 7 2 4 1022.3 1022.0 0.0
16/08:00pm 10.0 8.3 2.1 58 3.4 CALM 0 0 0 0 1022.1 1021.8 0.0
16/07:30pm 10.8 9.1 2.1 55 3.7 CALM 0 0 0 0 1021.9 1021.6 0.0
16/07:00pm 10.9 7.9 2.0 54 3.8 SSW 7 7 4 4 1021.7 1021.4 0.0
16/06:30pm 11.6 7.9 2.4 53 4.0 SW 11 11 6 6 1021.3 1021.0 0.0
16/06:00pm 13.7 10.3 2.0 45 5.1 SSW 9 11 5 6 1021.0 1020.7 0.0
16/05:30pm 16.2 12.4 1.5 37 6.6 WSW 11 13 6 7 1020.6 1020.3 0.0
16/05:00pm 18.3 14.1 1.8 33 7.5 WSW 13 17 7 9 1020.4 1020.1 0.0
16/04:30pm 19.4 15.9 1.4 30 8.2 SW 9 13 5 7 1020.3 1020.0 0.0
16/04:00pm 19.7 15.4 0.7 28 8.6 W 13 20 7 11 1020.2 1019.9 0.0
16/03:30pm 20.4 16.6 1.8 29 8.6 WSW 11 15 6 8 1020.2 1019.9 0.0
16/03:00pm 19.9 15.7 1.4 29 8.5 WSW 13 20 7 11 1020.3 1020.0 0.0
16/02:30pm 19.6 15.5 2.5 32 8.0 SW 13 19 7 10 1020.2 1019.9 0.0
16/02:00pm 20.2 15.8 0.1 26 9.0 WSW 13 19 7 10 1020.3 1020.0 0.0
16/01:30pm 19.5 16.3 2.8 33 7.9 WNW 9 15 5 8 1020.5 1020.2 0.0
16/01:00pm 19.2 14.1 3.0 34 7.6 W 19 24 10 13 1020.9 1020.6 0.0
16/12:30pm 19.0 16.1 4.7 39 7.0 WNW 9 17 5 9 1021.3 1021.0 0.0
16/12:00pm 18.3 15.5 3.0 36 7.1 WSW 7 11 4 6 1021.7 1021.4 0.0
16/11:30am 17.4 15.2 6.3 48 5.5 WSW 7 11 4 6 1021.8 1021.5 0.0
16/11:00am 16.4 14.6 7.3 55 4.6 NNE 6 9 3 5 1022.2 1021.9 0.0
16/10:30am 15.5 14.2 7.8 60 3.9 ENE 4 9 2 5 1022.5 1022.2 0.0
16/10:00am 14.1 12.0 6.7 61 3.6 NNE 7 11 4 6 1022.4 1022.1 0.0
16/09:30am 13.2 11.5 7.4 68 2.9 ENE 6 7 3 4 1022.5 1022.2 0.0
16/09:00am 11.7 9.9 7.2 74 2.2 ENE 6 7 3 4 1022.3 1022.0 0.0
16/08:30am 9.7 8.4 5.9 77 1.8 E 2 7 1 4 1022.2 1021.9 0.0
16/08:00am 7.6 6.8 6.4 92 0.6 CALM 0 2 0 1 1021.6 1021.3 0.0
16/07:30am 5.0 3.8 4.7 98 0.1 CALM 0 0 0 0 1021.2 1020.9 0.0
16/07:00am 4.5 3.3 4.4 99 0.0 CALM 0 0 0 0 1020.7 1020.4 0.0
16/06:30am 3.6 2.2 3.5 99 0.0 CALM 0 0 0 0 1020.6 1020.3 0.0
16/06:00am 3.6 2.2 3.5 99 0.0 CALM 0 0 0 0 1020.2 1019.9 0.0
16/05:30am 4.8 2.4 4.5 98 0.1 NE 6 7 3 4 1020.1 1019.8 0.0
16/05:00am 4.4 3.0 3.5 94 0.4 CALM 0 0 0 0 1019.7 1019.4 0.0
16/04:30am 5.5 3.0 4.6 94 0.4 ESE 7 9 4 5 1019.5 1019.2 0.0
16/04:00am 5.6 3.3 4.9 95 0.3 ESE 6 7 3 4 1019.2 1018.8 0.0
16/03:30am 6.1 5.0 5.1 93 0.4 CALM 0 0 0 0 1019.1 1018.7 0.0
16/03:00am 6.5 4.2 5.5 93 0.4 ENE 7 7 4 4 1018.8 1018.5 0.0
16/02:30am 7.3 6.4 5.9 91 0.6 CALM 0 0 0 0 1018.9 1018.6 0.0
16/02:00am 7.7 6.5 6.3 91 0.6 E 2 6 1 3 1019.2 1018.8 0.0
16/01:30am 7.0 5.9 5.3 89 0.8 CALM 0 0 0 0 1019.1 1018.7 0.0
16/01:00am 7.4 6.4 5.5 88 0.9 CALM 0 0 0 0 1018.9 1018.6 0.0
16/12:30am 7.3 6.2 5.3 87 0.9 CALM 0 0 0 0 1018.9 1018.6 0.0
16/12:00am 7.6 6.6 5.6 87 0.9 CALM 0 0 0 0 1018.8 1018.5 0.0
 
Date/Time
EST
Temp
°C
App
Temp
°C
Dew
Point
°C
Rel
Hum
%
Delta-T
°C
Wind Press
QNH
hPa
Press
MSL
hPa
Rain since
9am
mm
Dir  Spd
km/h
Gust
km/h
Spd
kts
Gust
kts
15/11:30pm 7.8 6.8 5.4 85 1.1 CALM 0 0 0 0 1019.1 1018.7 0.0
15/11:00pm 7.8 6.6 4.7 81 1.4 CALM 0 0 0 0 1018.8 1018.5 0.0
15/10:30pm 9.1 7.3 5.5 78 1.7 ENE 4 6 2 3 1018.8 1018.5 0.0
15/10:00pm 9.8 7.7 6.0 77 1.8 NE 6 7 3 4 1018.8 1018.5 0.0
15/09:30pm 10.0 8.4 6.2 77 1.8 E 4 7 2 4 1018.8 1018.5 0.0
15/09:00pm 10.0 9.1 6.2 77 1.8 CALM 0 0 0 0 1018.6 1018.3 0.0
15/08:30pm 8.7 6.3 5.1 78 1.6 SW 7 9 4 5 1018.6 1018.3 0.0
15/08:00pm 9.1 6.3 5.1 76 1.8 SSW 9 11 5 6 1018.2 1017.9 0.0
15/07:30pm 9.8 7.0 5.0 72 2.2 SW 9 11 5 6 1018.0 1017.7 0.0
15/07:00pm 11.4 9.0 5.3 66 2.8 SW 7 9 4 5 1017.6 1017.3 0.0
15/06:30pm 11.9 9.3 4.4 60 3.4 SW 7 9 4 5 1017.2 1016.9 0.0
15/06:00pm 14.0 10.8 4.9 54 4.3 WSW 11 13 6 7 1016.8 1016.5 0.0
15/05:30pm 15.4 11.8 4.8 49 5.0 WSW 13 15 7 8 1016.3 1016.0 0.0
15/05:00pm 17.6 13.3 5.2 44 6.0 WSW 17 22 9 12 1016.0 1015.7 0.0
15/04:30pm 18.2 13.6 5.4 43 6.3 WSW 19 28 10 15 1016.1 1015.8 0.0
15/04:00pm 18.8 14.2 5.6 42 6.5 W 19 28 10 15 1015.9 1015.6 0.0
15/03:30pm 18.8 14.0 5.6 42 6.5 WSW 20 30 11 16 1015.8 1015.5 0.0
15/03:00pm 18.7 13.4 4.8 40 6.8 WSW 22 33 12 18 1015.7 1015.4 0.0
15/02:30pm 19.2 14.9 7.0 45 6.2 W 19 30 10 16 1015.7 1015.4 0.0
15/02:00pm 19.0 14.0 6.5 44 6.3 W 22 32 12 17 1015.9 1015.6 0.0
15/01:30pm 18.6 13.1 6.1 44 6.2 W 24 32 13 17 1016.0 1015.7 0.0
15/01:00pm 18.6 14.5 6.1 44 6.2 W 17 22 9 12 1016.5 1016.2 0.0
15/12:30pm 18.0 14.1 8.8 55 4.8 W 19 24 10 13 1016.8 1016.5 0.0
15/12:00pm 16.9 11.8 5.8 48 5.4 W 22 32 12 17 1017.2 1016.9 0.0
15/11:30am 17.8 13.5 7.0 49 5.5 W 19 30 10 16 1017.7 1017.4 0.0
15/11:00am 17.3 15.1 7.9 54 4.8 W 9 22 5 12 1017.7 1017.4 0.0
15/10:30am 16.1 14.1 8.8 62 3.8 NNW 9 9 5 5 1017.9 1017.6 0.0
15/10:00am 14.8 13.0 9.4 70 2.8 NNW 9 11 5 6 1018.1 1017.8 0.0
15/09:30am 13.3 11.9 9.4 77 2.0 NW 7 11 4 6 1018.3 1018.0 0.0
15/09:00am 11.1 10.3 8.3 83 1.4 NNW 2 6 1 3 1018.4 1018.1 0.0
15/08:30am 9.4 8.2 8.0 91 0.7 N 4 7 2 4 1018.3 1018.0 0.0
15/08:00am 8.1 7.3 8.0 99 0.0 SSW 2 7 1 4 1018.2 1017.9 0.0
15/07:30am 6.4 4.2 6.3 99 0.0 WSW 7 9 4 5 1017.8 1017.5 0.0
15/07:00am 6.2 4.5 5.9 98 0.1 ENE 4 7 2 4 1017.2 1016.9 0.0
15/06:30am 6.5 4.3 6.4 99 0.0 ENE 7 7 4 4 1016.8 1016.5 0.0
15/06:00am 6.2 5.3 6.1 99 0.0 CALM 0 0 0 0 1016.7 1016.4 0.0
15/05:30am 6.3 4.3 6.2 99 0.0 ENE 6 7 3 4 1016.6 1016.3 0.0
15/05:00am 6.0 3.9 5.9 99 0.0 ENE 6 7 3 4 1016.4 1016.1 0.0
15/04:30am 5.1 3.7 3.4 89 0.7 CALM 0 0 0 0 1016.4 1016.1 0.0
15/04:00am 7.3 5.0 5.8 90 0.7 E 7 9 4 5 1016.1 1015.8 0.0
15/03:30am 7.6 5.4 6.1 90 0.7 N 7 9 4 5 1016.1 1015.8 0.0
15/03:00am 8.2 7.5 7.1 93 0.5 CALM 0 0 0 0 1016.0 1015.7 0.0
15/02:30am 7.4 6.7 6.8 96 0.3 CALM 0 0 0 0 1016.1 1015.8 0.0
15/02:00am 7.0 6.0 5.8 92 0.5 CALM 0 0 0 0 1016.3 1016.0 0.0
15/01:30am 7.9 7.0 6.0 88 0.9 CALM 0 0 0 0 1016.3 1016.0 0.0
15/01:00am 8.3 7.3 5.8 84 1.1 CALM 0 0 0 0 1016.3 1016.0 0.0
15/12:30am 9.8 7.8 6.9 82 1.4 E 7 9 4 5 1016.3 1016.0 0.0
15/12:00am 10.7 8.9 7.8 82 1.4 ENE 7 9 4 5 1016.2 1015.9 0.0
 
Date/Time
EST
Temp
°C
App
Temp
°C
Dew
Point
°C
Rel
Hum
%
Delta-T
°C
Wind Press
QNH
hPa
Press
MSL
hPa
Rain since
9am
mm
Dir  Spd
km/h
Gust
km/h
Spd
kts
Gust
kts
14/11:30pm 11.2 9.4 7.9 80 1.6 E 7 9 4 5 1016.3 1016.0 0.0
14/11:00pm 10.6 10.1 7.8 83 1.4 CALM 0 0 0 0 1016.3 1016.0 0.0
14/10:30pm 9.2 8.4 6.6 84 1.2 CALM 0 0 0 0 1016.5 1016.2 0.0
14/10:00pm 11.5 10.8 6.8 73 2.3 CALM 0 0 0 0 1016.4 1016.1 0.0
14/09:30pm 12.0 11.4 7.5 74 2.2 CALM 0 0 0 0 1016.3 1016.0 0.0
14/09:00pm 12.2 11.5 7.1 71 2.5 CALM 0 0 0 0 1016.0 1015.7 0.0
14/08:30pm 13.8 12.0 7.1 64 3.3 WNW 6 7 3 4 1015.8 1015.5 0.0
14/08:00pm 13.3 11.0 7.3 67 3.0 SSW 9 11 5 6 1015.8 1015.5 0.0
14/07:30pm 13.3 11.5 8.0 70 2.6 SSW 7 9 4 5 1015.6 1015.3 0.0
14/07:00pm 13.6 11.3 7.6 67 3.0 SSW 9 11 5 6 1015.3 1014.9 0.0
14/06:30pm 16.6 14.2 8.6 59 4.1 W 11 13 6 7 1014.8 1014.4 0.0
14/06:00pm 17.6 14.1 8.7 56 4.6 W 17 22 9 12 1014.5 1014.1 0.0
14/05:30pm 19.5 15.8 9.4 52 5.4 WSW 19 26 10 14 1014.2 1013.8 0.0
14/05:00pm 20.6 15.6 9.5 49 6.0 WSW 26 33 14 18 1013.7 1013.4 0.0
14/04:30pm 21.7 16.6 7.5 40 7.4 WSW 24 30 13 16 1013.4 1013.1 0.0
14/04:00pm 21.5 16.9 6.6 38 7.7 W 20 30 11 16 1013.2 1012.9 0.0
14/03:30pm 21.6 16.1 5.9 36 8.0 WSW 24 30 13 16 1013.2 1012.9 0.0
14/03:00pm 21.6 16.0 5.5 35 8.1 WSW 24 30 13 16 1013.2 1012.9 0.0
14/02:30pm 22.4 16.9 4.0 30 9.0 WNW 22 32 12 17 1012.9 1012.6 0.0
14/02:00pm 21.9 16.7 3.6 30 8.9 WNW 20 26 11 14 1012.9 1012.6 0.0
14/01:30pm 21.7 14.9 2.9 29 9.0 W 28 33 15 18 1012.9 1012.6 0.0
14/01:00pm 22.9 15.8 3.4 28 9.5 W 30 39 16 21 1013.2 1012.9 0.0
14/12:30pm 21.8 17.0 4.4 32 8.6 NW 19 28 10 15 1013.5 1013.2 0.0
14/12:00pm 20.3 15.2 3.1 32 8.2 NW 19 28 10 15 1014.0 1013.7 0.0
14/11:30am 19.9 15.1 2.7 32 8.1 NW 17 30 9 16 1014.3 1013.9 0.0
14/11:00am 19.4 14.7 3.2 34 7.7 NW 17 24 9 13 1014.7 1014.3 0.0
14/10:30am 18.6 14.2 2.9 35 7.3 NW 15 24 8 13 1014.9 1014.5 0.0
14/10:00am 18.1 14.1 2.8 36 7.1 NW 13 17 7 9 1015.1 1014.7 0.0
14/09:30am 17.8 15.0 5.1 43 6.2 NNW 9 11 5 6 1015.2 1014.8 0.0
14/09:00am 17.2 14.8 5.2 45 5.8 N 7 9 4 5 1015.3 1014.9 0.0
14/08:30am 16.6 13.8 5.3 47 5.5 N 9 15 5 8 1015.3 1014.9 0.0
14/08:00am 16.1 14.3 5.4 49 5.2 N 4 7 2 4 1015.3 1014.9 0.0
14/07:30am 15.8 13.3 4.8 48 5.2 N 7 9 4 5 1014.9 1014.5 0.0
14/07:00am 15.2 14.1 5.1 51 4.8 CALM 0 0 0 0 1014.9 1014.5 0.0
14/06:30am 14.7 13.9 6.3 57 4.1 CALM 0 0 0 0 1014.7 1014.3 0.0
14/06:00am 15.0 12.2 5.2 52 4.7 NE 9 11 5 6 1014.4 1014.0 0.0
14/05:30am 14.8 12.6 6.4 57 4.1 NNE 7 9 4 5 1014.7 1014.3 0.0
14/05:00am 14.3 13.8 8.0 66 3.2 CALM 0 0 0 0 1014.8 1014.4 0.0
14/04:30am 14.4 13.6 6.5 59 3.9 CALM 0 0 0 0 1014.7 1014.3 0.0
14/04:00am 14.3 13.6 7.1 62 3.6 CALM 0 0 0 0 1014.8 1014.4 0.0
14/03:30am 14.2 12.3 6.8 61 3.6 NNW 6 7 3 4 1014.9 1014.5 0.0
14/03:00am 14.5 13.9 7.3 62 3.6 CALM 0 0 0 0 1015.0 1014.6 0.0
14/02:30am 14.3 12.8 6.9 61 3.6 S 4 7 2 4 1014.9 1014.5 0.0
14/02:00am 14.1 12.8 7.6 65 3.2 SW 4 11 2 6 1015.5 1015.2 0.0
14/01:30am 14.5 13.2 7.8 64 3.4 NE 4 7 2 4 1015.6 1015.3 0.0
14/01:00am 14.0 11.5 8.4 69 2.8 SSW 11 13 6 7 1016.1 1015.8 0.0
14/12:30am 13.8 12.2 8.6 71 2.6 SSW 7 9 4 5 1016.1 1015.8 0.0
14/12:00am 14.0 12.2 8.0 67 3.0 W 7 9 4 5 1016.3 1016.0 0.0

Other formats

Comma delimited format used in spreadsheet applications
http://www.bom.gov.au/fwo/IDN60801/IDN60801.94910.axf

JavaScript Object Notation format (JSON) in row-major order
http://www.bom.gov.au/fwo/IDN60801/IDN60801.94910.json

Data quality

Most of these data are generated automatically and are frequently updated. Quality checks on data are not normally performed. It is possible for incorrect values to appear. Refer to information at About Latest Weather Observations and please check the disclaimer before using these data.